• Join FlightAware (Why Join?)
  • Login
  • US Flag 
10:05PM EDT


 

Airport Tracker/Info


-or-


 

Live Flight TrackerFlight Track Log ✈ N600TR ✈ 17-Aug-2013 ✈ KPIT - KATL

Flight Track Log - Related Links

Times and Time Zones

All times are in EDT time to prevent confusion due to time zone crossing. See the N600TR flight status page for this flight to view local times or setup timezone preferences in your user account.

Time Position Orientation Groundspeed Altitude Reporting Facility
EDT Latitude Longitude Course Direction KTS MPH feet Rate Location/Type
06:07PM 40.4603 -80.1275 215° Southwest 221 254 5,100  Level Cleveland Center
06:08PM 40.3894 -80.1414 188° South 272 313 7,100 2,040 Climbing Cleveland Center
06:09PM 40.1767 -80.1233 217° Southwest  Level FlightAware Approximate
06:09PM 40.3061 -80.1611 190° South 287 330 9,300  Level Cleveland Center
06:10PM 40.1000 -80.1917 214° Southwest  Level FlightAware Approximate
06:10PM 40.2228 -80.1806 190° South 301 346 11,100  Level Cleveland Center
06:11PM 40.0233 -80.2600 217° Southwest  Level FlightAware Approximate
06:11PM 40.1269 -80.2031 190° South 343 395 11,900  Level Cleveland Center
06:12PM 39.9496 -80.3337 215° Southwest  Level FlightAware Approximate
06:12PM 40.0356 -80.2767 212° Southwest 377 434 13,600  Level Cleveland Center
06:13PM 39.8732 -80.4026 215° Southwest  Level FlightAware Approximate
06:13PM 39.9503 -80.3583 216° Southwest 382 440 15,600  Level Cleveland Center
06:14PM 39.8544 -80.4369 212° Southwest 393 452 17,000 1,500 Climbing Cleveland Center
06:15PM 39.7608 -80.5156 213° Southwest 399 459 18,600 1,440 Climbing Cleveland Center
06:17PM 39.5961 -80.6569 213° Southwest 415 478 21,100 1,440 Climbing Indianapolis Center
06:18PM 39.4933 -80.7353 210° Southwest 426 490 22,700 1,260 Climbing Indianapolis Center
06:19PM 39.3906 -80.8133 210° Southwest 427 491 23,800 1,560 Climbing Indianapolis Center
06:20PM 39.2883 -80.8897 210° Southwest 426 490 25,900 1,020 Climbing Indianapolis Center
06:21PM 39.1642 -80.9778 209° Southwest 424 488 26,000  Climbing Indianapolis Center
06:22PM 39.0567 -81.0447 206° Southwest 427 491 25,900 -60 Descending Indianapolis Center
06:23PM 38.9447 -81.1089 204° Southwest 435 501 25,900  Level Indianapolis Center
06:24PM 38.8361 -81.1722 204° Southwest 429 494 25,900  Level Indianapolis Center
06:25PM 38.7258 -81.2372 205° Southwest 430 495 25,900  Level Indianapolis Center
06:26PM 38.6153 -81.3019 205° Southwest 428 493 25,900  Level Indianapolis Center
06:27PM 38.5075 -81.3675 205° Southwest 421 484 26,000 780 Climbing Indianapolis Center
06:28PM 38.4031 -81.4339 206° Southwest 414 476 27,500 1,380 Climbing Indianapolis Center
06:29PM 38.3061 -81.4983 208° Southwest 395 455 28,900 1,200 Climbing Indianapolis Center
06:30PM 38.2133 -81.5625 209° Southwest 381 438 30,000 900 Climbing Indianapolis Center
06:31PM 38.1222 -81.6258 209° Southwest 375 432 30,800 720 Climbing Indianapolis Center
06:32PM 38.0306 -81.6897 209° Southwest 375 432 31,500 540 Climbing Indianapolis Center
06:33PM 37.9392 -81.7533 209° Southwest 374 430 32,000 240 Climbing Indianapolis Center
06:34PM 37.8458 -81.8175 209° Southwest 379 436 32,000  Level Indianapolis Center
06:35PM 37.7292 -81.8903 206° Southwest 383 441 32,000  Level Indianapolis Center
06:36PM 37.6297 -81.9439 203° Southwest 387 445 32,000  Level Indianapolis Center
06:37PM 37.5322 -81.9986 204° Southwest 384 442 32,000  Level Indianapolis Center
06:39PM 37.4317 -82.0522 203° Southwest 387 445 32,000  Level Indianapolis Center
06:40PM 37.3325 -82.1067 204° Southwest 388 447 32,000  Level Indianapolis Center
06:41PM 37.2328 -82.1586 203° Southwest 387 445 32,000  Level Indianapolis Center
06:42PM 37.1317 -82.2111 202° Southwest 391 450 32,000  Level Indianapolis Center
06:43PM 37.0311 -82.2633 203° Southwest 391 450 32,000  Level Indianapolis Center
06:44PM 36.9294 -82.3156 202° Southwest 391 450 32,000  Level Indianapolis Center
06:45PM 36.8283 -82.3697 203° Southwest 392 451 32,000  Level Indianapolis Center
06:46PM 36.7261 -82.4231 203° Southwest 393 452 32,000  Level Indianapolis Center
06:47PM 36.6028 -82.4725 198° South 396 456 32,000  Level Indianapolis Center
06:47PM 36.5614 -82.4881 197° South 394 453 32,000  Level Atlanta Center
06:48PM 36.4556 -82.5236 195° South 399 459 32,000  Level Atlanta Center
06:49PM 36.3475 -82.5617 196° South 399 459 32,000  Level Atlanta Center
06:50PM 36.2397 -82.5972 195° South 399 459 32,000  Level Atlanta Center
06:51PM 36.1336 -82.6350 196° South 399 459 32,000  Level Atlanta Center
06:52PM 36.0256 -82.6728 196° South 394 453 32,000  Level Atlanta Center
06:53PM 35.9197 -82.7131 197° South 399 459 32,000  Level Atlanta Center
06:54PM 35.8136 -82.7533 197° South 399 459 32,000  Level Atlanta Center
06:55PM 35.7058 -82.7958 198° South 399 459 32,000  Level Atlanta Center
06:56PM 35.5997 -82.8333 196° South 405 466 32,000  Level Atlanta Center
06:57PM 35.4936 -82.8731 197° South 405 466 32,000 -60 Level Atlanta Center
06:58PM 35.3900 -82.9331 205° Southwest 405 466 31,900 -600 Descending Atlanta Center
06:59PM 35.2819 -82.9956 205° Southwest 398 458 30,900 -1,380 Descending Atlanta Center
07:00PM 35.1864 -83.0553 207° Southwest 393 452 29,200 -1,620 Descending Atlanta Center
07:01PM 35.1033 -83.1094 208° Southwest 382 440 27,700 -1,500 Descending Atlanta Center
07:02PM 35.0100 -83.1689 208° Southwest 387 445 26,200 -1,500 Descending Atlanta Center
07:03PM 34.9164 -83.2131 201° Southwest 381 438 24,800 -1,140 Descending Atlanta Center
07:04PM 34.8228 -83.2467 196° South 362 417 24,000 -420 Descending Atlanta Center
07:05PM 34.7269 -83.2806 196° South 362 417 24,000  Level Atlanta Center
07:06PM 34.6356 -83.3519 213° Southwest 352 405 24,000 -1,500 Level Atlanta Center
07:07PM 34.5483 -83.4208 213° Southwest 364 419 21,000 -3,000 Descending Atlanta Center
07:08PM 34.4692 -83.4944 217° Southwest 371 427 18,000 -2,820 Descending Atlanta Center
07:09PM 34.3881 -83.5681 217° Southwest 371 427 15,400 -2,040 Descending Atlanta Center
07:10PM 34.3028 -83.6264 209° Southwest 360 414 14,000 -720 Descending Atlanta Center
07:11PM 34.2217 -83.6922 214° Southwest 360 414 14,000  Level Atlanta Center
07:12PM 34.1486 -83.7603 218° Southwest 350 403 14,100  Climbing Atlanta Center
07:13PM 34.0947 -83.8206 223° Southwest 317 365 14,100 -420 Level Atlanta Center
07:14PM 34.0500 -83.8833 229° Southwest 288 331 13,400 -1,080 Descending Atlanta TRACON
07:15PM 34.0000 -83.9667 234° Southwest 290 334 12,200 -660 Descending Atlanta TRACON
07:16PM 33.9500 -84.0333 228° Southwest 294 338 12,100 -120 Descending Atlanta TRACON
07:17PM 33.9000 -84.1167 234° Southwest 288 331 12,000  Descending Atlanta TRACON
07:18PM 33.8333 -84.1500 203° Southwest 245 282 12,100  Climbing Atlanta TRACON
07:19PM 33.7667 -84.1833 203° Southwest 243 280 12,100  Level Atlanta TRACON
07:20PM 33.7167 -84.2167 209° Southwest 247 284 12,100 -240 Level Atlanta TRACON
07:21PM 33.7167 -84.3000 270° West 249 287 11,700 -960 Descending Atlanta TRACON
07:22PM 33.7167 -84.4000 270° West 251 289 10,100 -1,440 Descending Atlanta TRACON
07:23PM 33.7167 -84.4833 270° West 237 273 8,700 -1,200 Descending Atlanta TRACON
07:24PM 33.7333 -84.5500 287° West 198 228 7,700 -1,380 Descending Atlanta TRACON
07:25PM 33.7333 -84.6167 270° West 210 242 6,000 -1,380 Descending Atlanta TRACON
07:26PM 33.7333 -84.7000 270° West 227 261 5,000 -540 Descending Atlanta TRACON
07:27PM 33.7500 -84.7667 287° West 230 265 5,000  Level Atlanta TRACON
07:28PM 33.7333 -84.8500 256° West 230 265 5,100  Climbing Atlanta TRACON
07:29PM 33.7167 -84.9000 248° West 234 269 5,100  Level Atlanta TRACON
07:30PM 33.6667 -84.8833 164° South 210 242 5,100  Level Atlanta TRACON
07:31PM 33.6500 -84.8167 107° East 221 254 5,100  Level Atlanta TRACON
07:32PM 33.6500 -84.7500 90° East 188 216 5,100  Level Atlanta TRACON
07:33PM 33.6500 -84.6833 90° East 198 228 5,100 -600 Level Atlanta TRACON
07:34PM 33.6500 -84.6333 90° East 199 229 4,000 -1,080 Descending Atlanta TRACON
07:35PM 33.6500 -84.5667 90° East 193 222 3,000 -960 Descending Atlanta TRACON
07:36PM 33.6500 -84.5000 90° East 143 165 2,100 -840 Descending Atlanta TRACON
07:37PM 33.6500 -84.4667 90° East 140 161 1,400 -720 Descending Atlanta TRACON